Terminal Aerodrome Forecast
Issued by NWS Jackson, KY

Home | Current Version | Previous Version | Text Only | Print | Product List | Glossary On
Versions: 1 2 3 4 5 6 7 8 9 10 11 12 13 14 15 16 17 18 19 20 21
000
FTUS43 KJKL 231734
TAFJKL
TAF
KJKL 231734Z 2318/2418 25008KT P6SM SCT050
     FM232000 26006KT P6SM VCTS SCT050CB
     FM240000 VRB03KT P6SM SCT050
     FM241400 VRB03KT P6SM SCT100=

USA.gov is the U.S. government's official web portal to all federal, state and local government web resources and services.